createdAt,value
2023-04-20T00:02:03.093Z,101274.59
2023-04-20T00:04:31.527Z,101259.81
2023-04-20T00:06:59.828Z,101261.81
2023-04-20T00:09:28.577Z,101269.16
2023-04-20T00:11:56.879Z,101258.38
2023-04-20T00:14:25.167Z,101256.34
2023-04-20T00:16:53.405Z,101257.50
2023-04-20T00:19:22.249Z,101251.00
2023-04-20T00:21:50.613Z,101250.56
2023-04-20T00:24:18.820Z,101240.72
2023-04-20T00:26:47.191Z,101238.28
2023-04-20T00:29:15.596Z,101234.50
2023-04-20T00:31:43.938Z,101228.41
2023-04-20T00:34:12.257Z,101228.03
2023-04-20T00:36:40.522Z,101217.19
2023-04-20T00:39:08.885Z,101220.63
2023-04-20T00:41:37.269Z,101211.09
2023-04-20T00:44:13.929Z,101216.13
2023-04-20T00:46:42.435Z,101214.22
2023-04-20T00:49:11.084Z,101208.03
2023-04-20T00:51:39.706Z,101204.22
2023-04-20T00:54:08.018Z,101205.78
2023-04-20T00:56:36.273Z,101203.56
2023-04-20T00:59:08.162Z,101202.84
2023-04-20T01:01:37.390Z,101202.00
2023-04-20T01:04:07.910Z,101198.84
2023-04-20T01:06:36.516Z,101212.50
2023-04-20T01:09:04.797Z,101203.31
2023-04-20T01:11:33.128Z,101202.28
2023-04-20T01:14:01.719Z,101198.59
2023-04-20T01:16:31.009Z,101195.94
2023-04-20T01:18:59.491Z,101197.38
2023-04-20T01:21:28.096Z,101197.78
2023-04-20T01:23:56.292Z,101194.31
2023-04-20T01:26:25.681Z,101190.13
2023-04-20T01:28:54.131Z,101190.75
2023-04-20T01:31:22.781Z,101194.44
2023-04-20T01:33:52.434Z,101185.13
2023-04-20T01:36:22.397Z,101170.97
2023-04-20T01:38:51.763Z,101168.50
2023-04-20T01:41:20.157Z,101165.84
2023-04-20T01:43:48.497Z,101167.31
2023-04-20T01:46:16.774Z,101165.38
2023-04-20T01:48:45.112Z,101163.31
2023-04-20T01:51:13.317Z,101157.16
2023-04-20T01:53:41.634Z,101165.44
2023-04-20T01:56:09.939Z,101162.97
2023-04-20T01:58:38.197Z,101160.50
2023-04-20T02:01:06.653Z,101146.50
2023-04-20T02:03:35.444Z,101158.84
2023-04-20T02:06:03.988Z,101163.91
2023-04-20T02:08:33.676Z,101169.50
2023-04-20T02:11:02.136Z,101169.09
2023-04-20T02:13:30.461Z,101161.63
2023-04-20T02:15:58.831Z,101167.78
2023-04-20T02:18:27.074Z,101165.47
2023-04-20T02:20:55.311Z,101159.84
2023-04-20T02:23:23.514Z,101154.56
2023-04-20T02:25:51.805Z,101153.50
2023-04-20T02:28:20.525Z,101144.09
2023-04-20T02:30:48.771Z,101153.38
2023-04-20T02:33:17.352Z,101140.38
2023-04-20T02:35:45.801Z,101145.84
2023-04-20T02:38:14.313Z,101141.78
2023-04-20T02:40:42.596Z,101141.59
2023-04-20T02:43:11.374Z,101142.72
2023-04-20T02:45:40.818Z,101139.44
2023-04-20T02:48:10.394Z,101135.91
2023-04-20T02:50:38.921Z,101136.81
2023-04-20T02:53:27.422Z,101126.78
2023-04-20T02:56:11.465Z,101140.53
2023-04-20T02:58:44.881Z,101132.91
2023-04-20T03:01:48.275Z,101126.53
2023-04-20T03:04:22.070Z,101119.25
2023-04-20T03:06:58.494Z,101127.34
2023-04-20T03:09:30.799Z,101114.34
2023-04-20T03:12:18.535Z,101117.25
2023-04-20T03:14:49.547Z,101120.59
2023-04-20T03:17:21.388Z,101113.94
2023-04-20T03:19:51.382Z,101120.69
2023-04-20T03:22:19.750Z,101115.63
2023-04-20T03:24:53.496Z,101111.41
2023-04-20T03:27:42.176Z,101112.28
2023-04-20T03:30:14.684Z,101114.78
2023-04-20T03:32:44.917Z,101100.06
2023-04-20T03:35:13.521Z,101096.84
2023-04-20T03:37:41.833Z,101098.59
2023-04-20T03:40:11.044Z,101093.53
2023-04-20T03:42:39.518Z,101080.25
2023-04-20T03:45:08.513Z,101091.88
2023-04-20T03:47:37.127Z,101089.53
2023-04-20T03:50:06.427Z,101100.66
2023-04-20T03:52:34.988Z,101094.69
2023-04-20T03:55:07.153Z,101095.28
2023-04-20T03:57:38.828Z,101099.66
2023-04-20T04:00:11.186Z,101097.50
2023-04-20T04:02:48.687Z,101089.66
2023-04-20T04:05:25.717Z,101089.06
2023-04-20T04:07:55.217Z,101096.53
2023-04-20T04:10:24.740Z,101093.22
2023-04-20T04:12:53.228Z,101100.03
2023-04-20T04:15:21.701Z,101098.84
2023-04-20T04:17:56.852Z,101099.16
2023-04-20T04:20:25.412Z,101104.13
2023-04-20T04:22:54.329Z,101112.13
2023-04-20T04:25:34.302Z,101115.22
2023-04-20T04:28:02.736Z,101109.63
2023-04-20T04:30:33.466Z,101116.31
2023-04-20T04:33:04.581Z,101115.78
2023-04-20T04:35:34.903Z,101113.25
2023-04-20T04:38:03.234Z,101114.41
2023-04-20T04:40:33.575Z,101118.53
2023-04-20T04:43:03.977Z,101116.31
2023-04-20T04:45:32.927Z,101111.84
2023-04-20T04:48:03.059Z,101104.19
2023-04-20T04:50:31.537Z,101101.13
2023-04-20T04:52:59.736Z,101105.22
2023-04-20T04:55:27.993Z,101094.47
2023-04-20T04:57:57.406Z,101106.66
2023-04-20T05:00:25.950Z,101110.78
2023-04-20T05:02:54.548Z,101105.75
2023-04-20T05:05:23.104Z,101108.03
2023-04-20T05:07:51.732Z,101113.16
2023-04-20T05:10:20.181Z,101120.25
2023-04-20T05:12:48.937Z,101113.59
2023-04-20T05:15:17.928Z,101116.63
2023-04-20T05:17:46.275Z,101111.84
2023-04-20T05:20:14.536Z,101118.50
2023-04-20T05:22:43.034Z,101120.75
2023-04-20T05:25:13.971Z,101120.91
2023-04-20T05:27:42.798Z,101120.25
2023-04-20T05:30:20.469Z,101124.19
2023-04-20T05:32:51.462Z,101125.28
2023-04-20T05:35:21.537Z,101132.44
2023-04-20T05:37:50.155Z,101129.91
2023-04-20T05:40:18.611Z,101125.19
2023-04-20T05:42:46.902Z,101124.63
2023-04-20T05:45:15.330Z,101121.97
2023-04-20T05:47:52.443Z,101121.97
2023-04-20T05:50:21.792Z,101122.44
2023-04-20T05:52:50.027Z,101124.88
2023-04-20T05:55:22.048Z,101128.97
2023-04-20T05:57:52.432Z,101126.06
2023-04-20T06:00:22.070Z,101126.59
2023-04-20T06:02:52.596Z,101122.63
2023-04-20T06:05:21.451Z,101127.78
2023-04-20T06:07:49.862Z,101124.34
2023-04-20T06:10:18.169Z,101127.25
2023-04-20T06:12:46.727Z,101124.53
2023-04-20T06:15:14.998Z,101121.72
2023-04-20T06:17:43.440Z,101111.75
2023-04-20T06:20:12.187Z,101122.94
2023-04-20T06:22:45.196Z,101119.88
2023-04-20T06:25:13.951Z,101121.88
2023-04-20T06:27:42.739Z,101107.03
2023-04-20T06:30:11.843Z,101132.97
2023-04-20T06:32:40.155Z,101118.00
2023-04-20T06:35:09.059Z,101122.66
2023-04-20T06:37:37.478Z,101113.28
2023-04-20T06:40:10.596Z,101116.41
2023-04-20T06:42:39.004Z,101116.78
2023-04-20T06:45:08.227Z,101124.63
2023-04-20T06:47:37.022Z,101119.59
2023-04-20T06:50:09.873Z,101120.88
2023-04-20T06:52:40.452Z,101107.41
2023-04-20T06:55:09.896Z,101131.50
2023-04-20T06:57:43.645Z,101120.53
2023-04-20T07:00:13.197Z,101123.38
2023-04-20T07:02:47.183Z,101117.97
2023-04-20T07:05:17.268Z,101108.69
2023-04-20T07:07:46.343Z,101108.56
2023-04-20T07:10:15.673Z,101103.13
2023-04-20T07:12:44.954Z,101114.28
2023-04-20T07:15:13.547Z,101112.59
2023-04-20T07:17:41.926Z,101112.97
2023-04-20T07:20:11.105Z,101114.84
2023-04-20T07:22:40.101Z,101116.28
2023-04-20T07:25:11.049Z,101118.50
2023-04-20T07:27:41.512Z,101120.59
2023-04-20T07:30:10.875Z,101115.31
2023-04-20T07:32:41.127Z,101128.53
2023-04-20T07:35:10.438Z,101119.09
2023-04-20T07:37:39.199Z,101127.66
2023-04-20T07:40:08.550Z,101127.94
2023-04-20T07:42:37.308Z,101131.44
2023-04-20T07:45:07.669Z,101128.91
2023-04-20T07:47:36.994Z,101122.31
2023-04-20T07:50:07.816Z,101123.28
2023-04-20T07:52:36.279Z,101128.97
2023-04-20T07:55:06.120Z,101123.13
2023-04-20T07:57:34.936Z,101129.94
2023-04-20T08:00:07.398Z,101132.78
2023-04-20T08:02:41.672Z,101129.81
2023-04-20T08:05:11.111Z,101127.63
2023-04-20T08:07:40.020Z,101132.94
2023-04-20T08:10:09.282Z,101129.13
2023-04-20T08:12:38.595Z,101128.28
2023-04-20T08:15:08.002Z,101127.81
2023-04-20T08:17:36.329Z,101134.50
2023-04-20T08:20:06.124Z,101135.31
2023-04-20T08:22:34.598Z,101131.69
2023-04-20T08:25:04.259Z,101127.59
2023-04-20T08:27:32.998Z,101126.41
2023-04-20T08:30:01.859Z,101118.03
2023-04-20T08:32:30.151Z,101124.22
2023-04-20T08:34:58.535Z,101119.28
2023-04-20T08:37:26.986Z,101122.25
2023-04-20T08:39:55.326Z,101119.16
2023-04-20T08:42:23.576Z,101117.69
2023-04-20T08:44:52.766Z,101110.53
2023-04-20T08:47:21.600Z,101104.81
2023-04-20T08:49:57.638Z,101092.44
2023-04-20T08:52:25.997Z,101093.44
2023-04-20T08:54:57.594Z,101094.03
2023-04-20T08:57:26.692Z,101096.75
2023-04-20T08:59:58.227Z,101086.84
2023-04-20T09:02:26.786Z,101080.28
2023-04-20T09:05:05.862Z,101083.31
2023-04-20T09:07:34.272Z,101085.81
2023-04-20T09:10:02.718Z,101092.78
2023-04-20T09:12:43.688Z,101095.28
2023-04-20T09:15:24.422Z,101096.41
2023-04-20T09:17:52.732Z,101094.97
2023-04-20T09:20:34.978Z,101094.81
2023-04-20T09:23:18.791Z,101095.31
2023-04-20T09:25:52.929Z,101087.09
2023-04-20T09:28:21.652Z,101101.81
2023-04-20T09:30:51.615Z,101094.00
2023-04-20T09:33:19.869Z,101103.50
2023-04-20T09:35:48.467Z,101105.94
2023-04-20T09:38:17.454Z,101098.88
2023-04-20T09:40:45.876Z,101105.44
2023-04-20T09:43:20.429Z,101107.09
2023-04-20T09:45:50.287Z,101105.63
2023-04-20T09:48:20.808Z,101098.72
2023-04-20T09:50:50.969Z,101093.00
2023-04-20T09:53:20.715Z,101094.94
2023-04-20T09:55:54.162Z,101096.16
2023-04-20T09:58:22.258Z,101103.81
2023-04-20T10:00:51.258Z,101102.22
2023-04-20T10:03:20.592Z,101101.50
2023-04-20T10:05:50.649Z,101097.06
2023-04-20T10:08:20.591Z,101109.19
2023-04-20T10:10:51.437Z,101108.81
2023-04-20T10:13:21.753Z,101105.72
2023-04-20T10:15:50.221Z,101102.22
2023-04-20T10:18:24.535Z,101105.94
2023-04-20T10:21:09.390Z,101107.25
2023-04-20T10:23:52.661Z,101100.84
2023-04-20T10:26:20.931Z,101105.63
2023-04-20T10:28:49.680Z,101113.50
2023-04-20T10:31:20.393Z,101102.81
2023-04-20T10:33:56.546Z,101109.91
2023-04-20T10:36:31.677Z,101098.44
2023-04-20T10:39:04.864Z,101099.56
2023-04-20T10:41:33.051Z,101096.50
2023-04-20T10:44:10.294Z,101096.84
2023-04-20T10:46:38.444Z,101085.81
2023-04-20T10:49:09.038Z,101078.84
2023-04-20T10:51:37.386Z,101075.53
2023-04-20T10:54:09.074Z,101071.56
2023-04-20T10:56:38.912Z,101080.78
2023-04-20T10:59:15.845Z,101077.16
2023-04-20T11:01:45.503Z,101073.13
2023-04-20T11:04:17.802Z,101072.13
2023-04-20T11:06:48.351Z,101076.78
2023-04-20T11:09:23.484Z,101065.69
2023-04-20T11:12:16.008Z,101073.13
2023-04-20T11:15:02.719Z,101070.97
2023-04-20T11:17:35.912Z,101065.56
2023-04-20T11:20:14.359Z,101058.75
2023-04-20T11:22:43.704Z,101064.91
2023-04-20T11:25:13.199Z,101062.03
2023-04-20T11:27:42.045Z,101053.09
2023-04-20T11:30:10.586Z,101063.41
2023-04-20T11:32:39.244Z,101061.56
2023-04-20T11:35:10.889Z,101071.28
2023-04-20T11:37:54.391Z,101066.13
2023-04-20T11:40:22.959Z,101064.88
2023-04-20T11:42:51.472Z,101066.66
2023-04-20T11:45:19.957Z,101073.66
2023-04-20T11:47:51.832Z,101054.34
2023-04-20T11:50:21.148Z,101056.00
2023-04-20T11:52:49.207Z,101052.00
2023-04-20T11:55:17.316Z,101052.75
2023-04-20T11:57:45.889Z,101052.03
2023-04-20T12:00:15.027Z,101047.59
2023-04-20T12:02:43.276Z,101043.53
2023-04-20T12:05:12.018Z,101047.41
2023-04-20T12:07:40.519Z,101043.41
2023-04-20T12:10:09.269Z,101041.53
2023-04-20T12:12:38.446Z,101048.44
2023-04-20T12:15:09.350Z,101049.75
2023-04-20T12:17:37.670Z,101042.16
2023-04-20T12:20:08.871Z,101053.06
2023-04-20T12:22:37.034Z,101034.75
2023-04-20T12:25:06.765Z,101033.91
2023-04-20T12:27:34.795Z,101022.28
2023-04-20T12:30:04.066Z,101013.63
2023-04-20T12:32:32.098Z,101017.44
2023-04-20T12:35:00.598Z,101025.34
2023-04-20T12:37:29.568Z,101024.16
2023-04-20T12:39:58.069Z,101027.25
2023-04-20T12:42:26.484Z,101028.59
2023-04-20T12:44:54.616Z,101026.03
2023-04-20T12:47:23.172Z,101005.53
2023-04-20T12:49:51.519Z,101014.06
2023-04-20T12:52:19.492Z,101011.63
2023-04-20T12:54:50.017Z,101018.94
2023-04-20T12:57:18.600Z,101020.91
2023-04-20T12:59:48.670Z,101011.63
2023-04-20T13:02:18.026Z,101003.56
2023-04-20T13:04:46.920Z,100998.28
2023-04-20T13:07:15.465Z,100995.75
2023-04-20T13:09:43.325Z,100998.81
2023-04-20T13:12:13.362Z,100994.97
2023-04-20T13:14:41.724Z,100994.78
2023-04-20T13:17:09.607Z,100989.00
2023-04-20T13:19:37.579Z,100981.41
2023-04-20T13:22:06.167Z,100981.97
2023-04-20T13:24:34.401Z,100991.69
2023-04-20T13:27:02.442Z,100981.38
2023-04-20T13:29:30.837Z,100987.81
2023-04-20T13:31:59.086Z,100993.84
2023-04-20T13:34:27.781Z,100986.91
2023-04-20T13:36:56.609Z,100983.41
2023-04-20T13:39:27.551Z,100992.59
2023-04-20T13:41:55.800Z,100997.47
2023-04-20T13:44:24.090Z,100995.44
2023-04-20T13:46:52.330Z,100986.94
2023-04-20T13:49:22.770Z,100979.97
2023-04-20T13:51:50.664Z,100982.31
2023-04-20T13:54:21.688Z,100986.31
2023-04-20T13:56:49.608Z,100982.63
2023-04-20T13:59:17.926Z,100982.84
2023-04-20T14:01:46.234Z,100978.06
2023-04-20T14:04:16.915Z,100959.06
2023-04-20T14:06:44.976Z,100949.63
2023-04-20T14:09:13.319Z,100944.44
2023-04-20T14:11:43.556Z,100927.78
2023-04-20T14:14:12.026Z,100933.66
2023-04-20T14:16:48.162Z,100931.56
2023-04-20T14:19:16.613Z,100913.25
2023-04-20T14:21:47.354Z,100910.47
2023-04-20T14:24:15.981Z,100914.94
2023-04-20T14:26:44.697Z,100902.31
2023-04-20T14:29:13.037Z,100911.84
2023-04-20T14:31:41.494Z,100911.84
2023-04-20T14:34:09.950Z,100909.31
2023-04-20T14:36:38.188Z,100906.44
2023-04-20T14:39:06.545Z,100896.63
2023-04-20T14:41:35.102Z,100892.25
2023-04-20T14:44:04.072Z,100886.22
2023-04-20T14:46:32.394Z,100893.22
2023-04-20T14:49:00.830Z,100892.31
2023-04-20T14:51:29.143Z,100899.38
2023-04-20T14:53:57.819Z,100905.00
2023-04-20T14:56:26.162Z,100892.88
2023-04-20T14:58:55.750Z,100896.06
2023-04-20T15:01:24.032Z,100890.28
2023-04-20T15:03:55.522Z,100886.53
2023-04-20T15:06:24.091Z,100889.88
2023-04-20T15:09:02.658Z,100889.09
2023-04-20T15:11:31.122Z,100883.78
2023-04-20T15:13:59.371Z,100894.34
2023-04-20T15:16:27.630Z,100900.38
2023-04-20T15:18:57.545Z,100893.41
2023-04-20T15:21:26.996Z,100897.38
2023-04-20T15:23:55.325Z,100894.38
2023-04-20T15:26:23.731Z,100894.97
2023-04-20T15:28:52.764Z,100892.31
2023-04-20T15:31:21.015Z,100889.41
2023-04-20T15:33:49.330Z,100890.06
2023-04-20T15:36:19.821Z,100882.09
2023-04-20T15:38:48.450Z,100889.28
2023-04-20T15:41:16.670Z,100878.41
2023-04-20T15:43:44.951Z,100879.47
2023-04-20T15:46:13.741Z,100887.63
2023-04-20T15:48:43.178Z,100897.66
2023-04-20T15:51:11.594Z,100889.72
2023-04-20T15:53:39.881Z,100896.13
2023-04-20T15:56:08.187Z,100901.00
2023-04-20T15:58:37.127Z,100910.75
2023-04-20T16:01:05.439Z,100902.28
2023-04-20T16:03:35.092Z,100899.59
2023-04-20T16:06:03.533Z,100899.63
2023-04-20T16:08:32.161Z,100896.03
2023-04-20T16:11:00.585Z,100899.53
2023-04-20T16:13:29.085Z,100891.03
2023-04-20T16:15:57.442Z,100903.63
2023-04-20T16:18:25.760Z,100898.69
2023-04-20T16:20:54.285Z,100896.47
2023-04-20T16:23:22.813Z,100899.19
2023-04-20T16:25:51.222Z,100907.84
2023-04-20T16:28:19.484Z,100899.78
2023-04-20T16:30:48.031Z,100903.63
2023-04-20T16:33:16.813Z,100909.75
2023-04-20T16:35:45.186Z,100904.13
2023-04-20T16:38:13.626Z,100911.72
2023-04-20T16:40:43.417Z,100904.00
2023-04-20T16:43:12.043Z,100919.06
2023-04-20T16:45:40.328Z,100922.56
2023-04-20T16:48:08.698Z,100925.44
2023-04-20T16:50:38.100Z,100933.31
2023-04-20T16:53:08.972Z,100939.88
2023-04-20T16:55:37.402Z,100939.69
2023-04-20T16:58:05.789Z,100938.25
2023-04-20T17:00:35.304Z,100947.97
2023-04-20T17:03:10.420Z,100949.56
2023-04-20T17:05:41.653Z,100938.59
2023-04-20T17:08:10.531Z,100947.28
2023-04-20T17:10:39.379Z,100946.13
2023-04-20T17:13:07.926Z,100945.81
2023-04-20T17:15:36.755Z,100943.19
2023-04-20T17:18:06.716Z,100945.66
2023-04-20T17:20:35.279Z,100939.25
2023-04-20T17:23:03.800Z,100936.44
2023-04-20T17:25:31.989Z,100938.31
2023-04-20T17:28:00.561Z,100938.63
2023-04-20T17:30:28.855Z,100934.72
2023-04-20T17:32:57.600Z,100933.38
2023-04-20T17:35:25.995Z,100949.09
2023-04-20T17:37:54.241Z,100955.25
2023-04-20T17:40:22.515Z,100957.53
2023-04-20T17:42:50.896Z,100952.59
2023-04-20T17:45:19.221Z,100952.25
2023-04-20T17:47:47.775Z,100969.72
2023-04-20T17:50:16.535Z,100967.38
2023-04-20T17:52:45.049Z,100978.38
2023-04-20T17:55:13.354Z,100980.31
2023-04-20T17:57:41.660Z,100980.19
2023-04-20T18:00:11.682Z,100981.81
2023-04-20T18:02:40.949Z,100976.91
2023-04-20T18:05:09.711Z,100989.28
2023-04-20T18:07:38.274Z,100997.81
2023-04-20T18:10:07.472Z,101001.06
2023-04-20T18:12:36.849Z,101003.34
2023-04-20T18:15:08.198Z,101011.69
2023-04-20T18:17:36.845Z,101009.53
2023-04-20T18:20:06.808Z,101013.56
2023-04-20T18:22:37.020Z,101000.84
2023-04-20T18:25:06.388Z,101005.59
2023-04-20T18:27:34.731Z,101002.81
2023-04-20T18:30:03.231Z,101012.63
2023-04-20T18:32:32.908Z,101006.69
2023-04-20T18:35:01.611Z,101012.19
2023-04-20T18:37:29.821Z,101007.63
2023-04-20T18:39:59.681Z,101007.94
2023-04-20T18:42:27.947Z,101014.88
2023-04-20T18:44:56.527Z,101007.81
2023-04-20T18:47:26.376Z,101001.31
2023-04-20T18:49:54.698Z,101001.31
2023-04-20T18:52:23.382Z,101002.78
2023-04-20T18:54:52.167Z,101013.88
2023-04-20T18:57:25.975Z,101020.94
2023-04-20T18:59:56.375Z,101016.66
2023-04-20T19:02:24.950Z,101011.59
2023-04-20T19:04:53.753Z,101007.88
2023-04-20T19:07:22.069Z,101007.06
2023-04-20T19:09:50.528Z,101010.06
2023-04-20T19:12:19.010Z,101013.38
2023-04-20T19:14:49.306Z,101007.63
2023-04-20T19:17:17.851Z,101004.84
2023-04-20T19:19:47.908Z,101003.59
2023-04-20T19:22:16.383Z,101006.88
2023-04-20T19:24:44.937Z,101004.22
2023-04-20T19:27:13.375Z,101004.34
2023-04-20T19:29:41.602Z,100993.50
2023-04-20T19:32:09.872Z,101000.72
2023-04-20T19:34:38.330Z,100986.34
2023-04-20T19:37:06.641Z,100999.91
2023-04-20T19:39:34.944Z,100985.72
2023-04-20T19:42:03.301Z,100987.34
2023-04-20T19:44:31.599Z,100989.63
2023-04-20T19:46:59.803Z,100992.69
2023-04-20T19:49:28.055Z,100991.88
2023-04-20T19:51:56.330Z,100988.63
2023-04-20T19:54:24.740Z,100993.75
2023-04-20T19:56:52.992Z,100994.41
2023-04-20T19:59:21.395Z,100991.50
2023-04-20T20:01:50.794Z,100995.66
2023-04-20T20:04:20.466Z,100985.69
2023-04-20T20:06:50.619Z,100982.16
2023-04-20T20:09:23.194Z,100983.94
2023-04-20T20:11:52.454Z,100974.69
2023-04-20T20:14:20.842Z,100976.34
2023-04-20T20:16:49.201Z,100980.66
2023-04-20T20:19:18.197Z,100975.53
2023-04-20T20:21:46.788Z,100978.19
2023-04-20T20:24:16.076Z,100973.88
2023-04-20T20:26:44.676Z,100979.94
2023-04-20T20:29:12.941Z,100980.25
2023-04-20T20:31:41.776Z,100969.88
2023-04-20T20:34:10.342Z,100978.09
2023-04-20T20:36:38.657Z,100969.28
2023-04-20T20:39:07.548Z,100971.44
2023-04-20T20:41:36.256Z,100978.81
2023-04-20T20:44:04.642Z,100964.75
2023-04-20T20:46:33.034Z,100972.66
2023-04-20T20:49:01.604Z,100965.50
2023-04-20T20:51:29.909Z,100969.78
2023-04-20T20:53:58.732Z,100972.25
2023-04-20T20:56:27.150Z,100977.66
2023-04-20T20:58:55.505Z,100974.06
2023-04-20T21:01:23.920Z,100971.81
2023-04-20T21:03:52.352Z,100967.28
2023-04-20T21:06:20.838Z,100962.88
2023-04-20T21:08:49.095Z,100959.28
2023-04-20T21:11:17.449Z,100952.28
2023-04-20T21:13:45.739Z,100945.13
2023-04-20T21:16:14.184Z,100946.09
2023-04-20T21:18:42.717Z,100939.13
2023-04-20T21:21:13.688Z,100939.94
2023-04-20T21:23:42.059Z,100937.78
2023-04-20T21:26:10.551Z,100930.63
2023-04-20T21:28:39.134Z,100930.63
2023-04-20T21:31:07.649Z,100926.38
2023-04-20T21:33:36.009Z,100927.50
2023-04-20T21:36:04.678Z,100924.53
2023-04-20T21:38:33.113Z,100915.28
2023-04-20T21:41:03.796Z,100917.44
2023-04-20T21:43:31.684Z,100918.75
2023-04-20T21:46:00.270Z,100921.03
2023-04-20T21:48:28.906Z,100917.75
2023-04-20T21:50:57.471Z,100914.66
2023-04-20T21:53:25.710Z,100916.31
2023-04-20T21:55:54.003Z,100920.41
2023-04-20T21:58:22.270Z,100919.91
2023-04-20T22:00:50.957Z,100914.84
2023-04-20T22:03:19.318Z,100920.41
2023-04-20T22:05:47.846Z,100914.84
2023-04-20T22:08:16.066Z,100907.16
2023-04-20T22:10:44.300Z,100902.63
2023-04-20T22:13:14.017Z,100899.56
2023-04-20T22:15:44.080Z,100899.03
2023-04-20T22:18:12.861Z,100901.34
2023-04-20T22:20:41.117Z,100896.13
2023-04-20T22:23:09.363Z,100891.41
2023-04-20T22:25:37.593Z,100887.31
2023-04-20T22:28:05.966Z,100885.88
2023-04-20T22:30:34.545Z,100885.34
2023-04-20T22:33:03.855Z,100882.78
2023-04-20T22:35:32.176Z,100875.41
2023-04-20T22:38:00.457Z,100877.22
2023-04-20T22:40:28.833Z,100869.63
2023-04-20T22:42:57.017Z,100875.59
2023-04-20T22:45:25.477Z,100859.25
2023-04-20T22:47:53.786Z,100857.50
2023-04-20T22:50:22.323Z,100849.94
2023-04-20T22:52:51.162Z,100852.06
2023-04-20T22:55:19.661Z,100849.94
2023-04-20T22:57:47.909Z,100845.78
2023-04-20T23:00:16.677Z,100849.06
2023-04-20T23:02:45.019Z,100849.50
2023-04-20T23:05:13.441Z,100848.97
2023-04-20T23:07:45.145Z,100842.13
2023-04-20T23:10:16.190Z,100841.66
2023-04-20T23:12:44.811Z,100828.59
2023-04-20T23:15:13.579Z,100815.38
2023-04-20T23:17:41.948Z,100812.72
2023-04-20T23:20:13.337Z,100821.19
2023-04-20T23:22:41.645Z,100818.91
2023-04-20T23:25:10.934Z,100818.22
2023-04-20T23:27:39.276Z,100805.19
2023-04-20T23:30:08.703Z,100799.84
2023-04-20T23:32:37.822Z,100796.84
2023-04-20T23:35:06.297Z,100800.81
2023-04-20T23:37:34.647Z,100792.50
2023-04-20T23:40:06.704Z,100788.34
2023-04-20T23:42:39.548Z,100788.03
2023-04-20T23:45:08.901Z,100778.56
2023-04-20T23:47:37.271Z,100774.91
2023-04-20T23:50:06.656Z,100775.97
2023-04-20T23:52:34.962Z,100774.84
2023-04-20T23:55:03.980Z,100766.34
2023-04-20T23:57:32.225Z,100761.63
